Time;durP1;ratioP1;P1;durP2;ratioP2;P2;SDS_P1;SDS_P2;PMS_P1;PMS_P2;Temp;Humidity;BMP_temperature;BMP_pressure;BME280_temperature;BME280_humidity;BME280_pressure;Samples;Min_cycle;Max_cycle;Signal;HPM_P1;HPM_P2
2022/07/01 00:01:41;;;;;;;5.75;2.35;;;15.20;99.90;;;;;;5124468;27;20046;-59
2022/07/01 00:04:07;;;;;;;8.93;2.33;;;15.20;99.90;;;;;;5141160;27;20460;-59
2022/07/01 00:06:34;;;;;;;4.78;2.22;;;15.10;99.90;;;;;;5121251;27;20360;-57
2022/07/01 00:09:00;;;;;;;6.13;2.58;;;15.10;99.90;;;;;;5127511;27;20050;-56
2022/07/01 00:11:26;;;;;;;9.25;2.10;;;15.20;99.90;;;;;;5123304;27;20497;-56
2022/07/01 00:13:52;;;;;;;7.47;2.42;;;15.10;99.90;;;;;;5106938;27;20556;-55
2022/07/01 00:16:18;;;;;;;5.57;2.10;;;15.20;99.90;;;;;;5127586;27;20054;-58
2022/07/01 00:18:44;;;;;;;4.80;2.28;;;15.20;99.90;;;;;;5104427;27;21416;-59
2022/07/01 00:21:10;;;;;;;7.88;2.30;;;15.20;99.90;;;;;;5136185;27;20082;-59
2022/07/01 00:23:36;;;;;;;6.70;2.25;;;15.20;99.90;;;;;;5120054;27;20146;-58
2022/07/01 00:26:02;;;;;;;4.95;1.90;;;15.30;99.90;;;;;;5124062;27;20039;-58
2022/07/01 00:28:29;;;;;;;4.65;1.80;;;15.20;99.90;;;;;;5141692;27;20050;-59
2022/07/01 00:30:55;;;;;;;4.55;1.73;;;15.20;99.90;;;;;;5103907;27;20051;-59
2022/07/01 00:33:21;;;;;;;6.25;2.13;;;15.20;99.90;;;;;;5136626;27;20397;-58
2022/07/01 00:35:47;;;;;;;5.53;1.98;;;15.20;99.90;;;;;;5143130;27;20057;-59
2022/07/01 00:38:13;;;;;;;3.20;1.85;;;15.20;99.90;;;;;;5140896;27;20050;-58
2022/07/01 00:40:42;;;;;;;4.50;2.13;;;15.20;99.90;;;;;;5146015;27;20064;-58
2022/07/01 00:43:08;;;;;;;4.07;1.70;;;15.20;99.90;;;;;;5109970;27;20045;-58
2022/07/01 00:45:34;;;;;;;4.63;1.73;;;15.20;99.90;;;;;;5119807;27;20126;-58
2022/07/01 00:48:00;;;;;;;4.13;1.98;;;15.20;99.90;;;;;;5140471;27;20068;-58
2022/07/01 00:50:27;;;;;;;3.30;1.77;;;15.20;99.90;;;;;;5124855;27;20903;-58
2022/07/01 00:52:53;;;;;;;4.85;1.75;;;15.20;99.90;;;;;;5144099;27;20065;-56
2022/07/01 00:55:19;;;;;;;3.38;1.33;;;15.10;99.90;;;;;;5139269;27;20091;-56
2022/07/01 00:57:45;;;;;;;2.35;1.30;;;15.10;99.90;;;;;;5124997;27;20086;-55
2022/07/01 01:00:15;;;;;;;3.00;1.30;;;15.20;99.90;;;;;;5098914;27;20046;-56
2022/07/01 01:02:41;;;;;;;2.08;1.00;;;15.20;99.90;;;;;;5139991;27;20599;-56
2022/07/01 01:05:08;;;;;;;3.42;0.95;;;15.20;99.90;;;;;;5121337;27;20512;-56
2022/07/01 01:07:35;;;;;;;3.42;0.90;;;15.10;99.90;;;;;;5121748;27;20497;-55
2022/07/01 01:10:02;;;;;;;3.60;0.90;;;15.20;99.90;;;;;;5144402;27;20046;-55
2022/07/01 01:12:29;;;;;;;2.20;0.90;;;15.10;99.90;;;;;;5106405;27;20050;-58
2022/07/01 01:14:57;;;;;;;2.70;0.80;;;15.10;99.90;;;;;;5069505;27;20079;-59
2022/07/01 01:17:24;;;;;;;1.83;0.82;;;15.10;99.90;;;;;;5102579;27;20051;-59
2022/07/01 01:19:53;;;;;;;2.78;1.23;;;15.10;99.90;;;;;;5134738;27;20086;-59
2022/07/01 01:22:19;;;;;;;2.30;0.95;;;15.10;99.90;;;;;;5131905;27;20153;-59
2022/07/01 01:24:49;;;;;;;2.42;1.13;;;15.00;99.90;;;;;;5133257;27;20492;-59
2022/07/01 01:27:16;;;;;;;2.58;0.90;;;15.00;99.90;;;;;;5092761;27;20051;-60
2022/07/01 01:29:43;;;;;;;3.25;0.90;;;15.00;99.90;;;;;;5119180;27;20505;-60
2022/07/01 01:32:10;;;;;;;2.72;1.10;;;15.00;99.90;;;;;;5123308;27;20187;-60
2022/07/01 01:34:37;;;;;;;3.85;1.30;;;14.90;99.90;;;;;;5139898;27;20131;-60
2022/07/01 01:37:05;;;;;;;3.67;1.25;;;14.90;99.90;;;;;;5113780;27;20043;-59
2022/07/01 01:39:31;;;;;;;4.45;1.30;;;15.00;99.90;;;;;;5122113;27;20054;-59
2022/07/01 01:41:57;;;;;;;3.03;1.20;;;15.00;99.90;;;;;;5094475;27;20192;-57
2022/07/01 01:44:23;;;;;;;3.25;1.38;;;14.90;99.90;;;;;;5121993;27;20043;-55
2022/07/01 01:46:49;;;;;;;4.40;1.70;;;14.90;99.90;;;;;;5152808;27;20115;-56
2022/07/01 01:49:15;;;;;;;2.40;1.40;;;14.90;99.90;;;;;;5116214;27;20085;-55
2022/07/01 01:51:42;;;;;;;3.13;1.30;;;14.90;99.90;;;;;;5133757;27;20103;-56
2022/07/01 01:54:08;;;;;;;4.55;1.67;;;14.80;99.90;;;;;;5153534;27;20707;-57
2022/07/01 01:56:34;;;;;;;4.05;2.05;;;14.80;99.90;;;;;;5139872;27;20791;-56
2022/07/01 01:59:00;;;;;;;4.05;1.95;;;14.80;99.90;;;;;;5134499;27;20509;-57
2022/07/01 02:01:26;;;;;;;4.57;2.25;;;14.80;99.90;;;;;;5117011;27;20405;-56
2022/07/01 02:03:53;;;;;;;4.85;2.15;;;14.80;99.90;;;;;;5121244;27;20053;-57
2022/07/01 02:06:20;;;;;;;3.92;2.50;;;14.80;99.90;;;;;;5126164;27;20050;-57
2022/07/01 02:08:48;;;;;;;4.45;2.75;;;14.90;99.90;;;;;;5132840;27;20134;-57
2022/07/01 02:11:15;;;;;;;4.18;3.05;;;14.90;99.90;;;;;;5147984;27;20552;-57
2022/07/01 02:13:41;;;;;;;4.85;2.90;;;14.90;99.90;;;;;;5125108;27;20057;-55
2022/07/01 02:16:07;;;;;;;6.15;3.00;;;14.90;99.90;;;;;;5133930;27;20105;-59
2022/07/01 02:18:33;;;;;;;4.10;2.92;;;14.90;99.90;;;;;;5139843;27;20053;-59
2022/07/01 02:20:59;;;;;;;4.15;3.33;;;14.90;99.90;;;;;;5135285;27;20102;-59
2022/07/01 02:23:25;;;;;;;3.30;2.55;;;14.90;99.90;;;;;;5101370;27;20053;-59
2022/07/01 02:25:52;;;;;;;4.95;3.17;;;15.00;99.90;;;;;;5120037;27;20877;-58
2022/07/01 02:28:18;;;;;;;4.47;3.05;;;14.90;99.90;;;;;;5121560;27;20072;-58
2022/07/01 02:30:44;;;;;;;5.90;3.72;;;15.00;99.90;;;;;;5117684;27;20047;-60
2022/07/01 02:33:10;;;;;;;7.65;3.80;;;15.00;99.90;;;;;;5123929;27;20038;-60
2022/07/01 02:35:37;;;;;;;4.65;3.67;;;15.00;99.90;;;;;;5123368;27;20111;-57
2022/07/01 02:38:05;;;;;;;5.93;4.45;;;15.00;99.90;;;;;;5143172;27;20054;-57
2022/07/01 02:40:33;;;;;;;6.53;4.10;;;15.00;99.90;;;;;;5107885;27;20169;-57
2022/07/01 02:42:58;;;;;;;6.70;4.40;;;15.00;99.90;;;;;;5143183;27;20046;-60
2022/07/01 02:45:25;;;;;;;5.47;4.38;;;15.00;99.90;;;;;;5118431;27;20102;-59
2022/07/01 02:47:51;;;;;;;7.20;5.20;;;15.00;99.90;;;;;;5112014;27;20595;-60
2022/07/01 02:50:18;;;;;;;6.25;5.00;;;15.00;99.90;;;;;;5134827;27;20047;-60
2022/07/01 02:52:45;;;;;;;9.93;6.00;;;15.00;99.90;;;;;;5136521;27;20058;-59
2022/07/01 02:55:13;;;;;;;7.22;5.63;;;15.00;99.90;;;;;;5136029;27;20035;-59
2022/07/01 02:57:40;;;;;;;7.07;5.82;;;15.00;99.90;;;;;;5072302;27;20044;-60
2022/07/01 03:00:12;;;;;;;7.43;5.68;;;15.00;99.90;;;;;;5113115;27;20047;-59
2022/07/01 03:02:38;;;;;;;;;;;15.00;99.90;;;;;;5117000;27;20099;-59
2022/07/01 03:05:05;;;;;;;8.30;7.32;;;15.00;99.90;;;;;;5115545;27;20451;-58
2022/07/01 03:07:31;;;;;;;15.05;11.40;;;14.90;99.90;;;;;;5115896;27;20122;-59
2022/07/01 03:09:57;;;;;;;16.73;13.77;;;14.90;99.90;;;;;;5140054;27;20057;-58
2022/07/01 03:12:29;;;;;;;19.33;17.15;;;14.90;99.90;;;;;;5121793;27;20054;-56
2022/07/01 03:14:59;;;;;;;20.75;17.38;;;14.90;99.90;;;;;;5131595;27;20115;-56
2022/07/01 03:17:28;;;;;;;19.35;16.90;;;14.90;99.90;;;;;;5120325;27;20527;-56
2022/07/01 03:19:55;;;;;;;20.52;18.25;;;14.80;99.90;;;;;;5117382;27;20051;-58
2022/07/01 03:22:23;;;;;;;20.55;17.60;;;14.80;99.90;;;;;;5113379;27;20478;-59
2022/07/01 03:24:51;;;;;;;19.83;16.95;;;14.80;99.90;;;;;;5137336;27;20122;-59
2022/07/01 03:27:18;;;;;;;18.73;16.45;;;14.70;99.90;;;;;;5096594;27;20121;-58
2022/07/01 03:29:45;;;;;;;21.83;16.73;;;14.70;99.90;;;;;;5133427;27;20041;-59
2022/07/01 03:32:11;;;;;;;21.27;17.90;;;14.60;99.90;;;;;;5102070;27;20054;-59
2022/07/01 03:34:42;;;;;;;19.80;17.75;;;14.60;99.90;;;;;;5102571;27;20134;-59
2022/07/01 03:37:10;;;;;;;21.70;17.97;;;14.60;99.90;;;;;;5125099;27;20046;-56
2022/07/01 03:39:37;;;;;;;19.60;17.45;;;14.60;99.90;;;;;;5086500;27;20055;-56
2022/07/01 03:42:05;;;;;;;23.40;19.30;;;14.60;99.90;;;;;;5136292;27;20039;-59
2022/07/01 03:44:31;;;;;;;23.10;20.30;;;14.50;99.90;;;;;;5124078;27;20505;-59
2022/07/01 03:46:57;;;;;;;27.25;22.00;;;14.50;99.90;;;;;;5101402;27;20058;-59
2022/07/01 03:49:24;;;;;;;28.23;22.48;;;14.50;99.90;;;;;;5135656;27;20046;-58
2022/07/01 03:51:50;;;;;;;27.52;23.58;;;14.50;99.90;;;;;;5143549;27;20053;-57
2022/07/01 03:57:03;;;;;;;33.30;26.42;;;14.50;99.90;;;;;;5104939;27;20058;-59
2022/07/01 03:59:31;;;;;;;30.45;26.38;;;14.50;99.90;;;;;;5132627;27;20478;-59
2022/07/01 04:01:57;;;;;;;32.63;27.50;;;14.50;99.90;;;;;;5087572;27;20210;-58
2022/07/01 04:04:24;;;;;;;33.88;28.38;;;14.40;99.90;;;;;;5109273;27;20054;-59
2022/07/01 04:06:52;;;;;;;37.88;31.60;;;14.40;99.90;;;;;;5122199;27;20118;-60
2022/07/01 04:09:19;;;;;;;39.42;31.27;;;14.40;99.90;;;;;;5122311;27;20121;-59
2022/07/01 04:11:47;;;;;;;36.60;31.63;;;14.40;99.90;;;;;;5122149;27;20074;-58
2022/07/01 04:14:14;;;;;;;41.55;31.60;;;14.50;99.90;;;;;;5141667;27;20046;-55
2022/07/01 04:16:41;;;;;;;39.53;31.85;;;14.40;99.90;;;;;;5120929;27;20475;-56
2022/07/01 04:19:08;;;;;;;40.10;32.30;;;14.50;99.90;;;;;;5089312;27;20047;-56
2022/07/01 04:24:18;;;;;;;39.95;33.17;;;14.50;99.90;;;;;;5137952;27;20035;-55
2022/07/01 04:26:45;;;;;;;40.65;33.22;;;14.50;99.90;;;;;;5122490;27;20042;-56
2022/07/01 04:29:11;;;;;;;38.05;31.85;;;14.40;99.90;;;;;;5137011;27;20070;-56
2022/07/01 04:31:38;;;;;;;41.42;33.15;;;14.40;99.90;;;;;;5141491;27;20062;-56
2022/07/01 04:34:06;;;;;;;40.17;32.92;;;14.50;99.90;;;;;;5115578;27;20047;-59
2022/07/01 04:36:32;;;;;;;38.47;32.65;;;14.50;99.90;;;;;;5103851;27;20130;-59
2022/07/01 04:38:58;;;;;;;38.22;32.80;;;14.50;99.90;;;;;;5119712;27;20050;-60
2022/07/01 04:44:10;;;;;;;38.88;32.13;;;14.50;99.90;;;;;;5141595;27;20042;-59
2022/07/01 04:46:36;;;;;;;41.60;32.90;;;14.50;99.90;;;;;;5157141;27;20030;-60
2022/07/01 04:49:03;;;;;;;43.53;32.10;;;14.50;99.90;;;;;;5136424;27;20047;-59
2022/07/01 04:51:29;;;;;;;37.83;31.50;;;14.50;99.90;;;;;;5108869;27;20047;-59
2022/07/01 04:53:55;;;;;;;35.38;31.02;;;14.50;99.90;;;;;;5141163;27;20039;-58
2022/07/01 04:56:21;;;;;;;37.00;31.20;;;14.60;99.90;;;;;;5101177;27;20060;-59
2022/07/01 04:58:48;;;;;;;35.78;31.83;;;14.50;99.90;;;;;;5137358;27;20043;-56
2022/07/01 05:01:14;;;;;;;41.67;33.10;;;14.60;99.90;;;;;;5115975;27;20601;-55
2022/07/01 05:03:40;;;;;;;40.00;32.75;;;14.60;99.90;;;;;;5138377;27;20088;-55
2022/07/01 05:06:06;;;;;;;41.47;32.45;;;14.60;99.90;;;;;;5125114;27;20035;-56
2022/07/01 05:08:32;;;;;;;35.78;31.92;;;14.60;99.90;;;;;;5119744;27;20057;-57
2022/07/01 05:10:58;;;;;;;38.05;31.50;;;14.60;99.90;;;;;;5139510;27;20039;-56
2022/07/01 05:13:24;;;;;;;41.78;33.42;;;14.60;99.90;;;;;;5123852;27;20397;-57
2022/07/01 05:15:50;;;;;;;36.75;32.00;;;14.60;99.90;;;;;;5123448;27;20123;-54
2022/07/01 05:23:45;;;;;;;38.33;30.98;;;14.70;99.90;;;;;;5117946;27;20065;-60
2022/07/01 05:26:17;;;;;;;40.13;34.10;;;14.70;99.90;;;;;;5118862;27;20051;-59
2022/07/01 05:28:44;;;;;;;41.72;34.33;;;14.70;99.90;;;;;;5135958;27;20042;-60
2022/07/01 05:31:10;;;;;;;37.90;30.38;;;14.80;99.90;;;;;;5140243;27;20035;-59
2022/07/01 05:33:36;;;;;;;39.85;34.75;;;14.80;99.90;;;;;;5143456;27;20591;-60
2022/07/01 05:36:03;;;;;;;37.70;33.70;;;14.80;99.90;;;;;;5104576;27;20046;-59
2022/07/01 05:38:29;;;;;;;37.20;33.20;;;14.80;99.90;;;;;;5137289;27;20145;-58
2022/07/01 05:40:55;;;;;;;39.25;34.70;;;14.80;99.90;;;;;;5139878;27;20142;-59
2022/07/01 05:43:21;;;;;;;38.78;34.53;;;14.90;99.90;;;;;;5142405;27;20582;-59
2022/07/01 05:45:47;;;;;;;42.97;35.97;;;14.90;99.90;;;;;;5125090;27;20042;-60
2022/07/01 05:48:13;;;;;;;39.60;35.42;;;14.90;99.90;;;;;;5139824;27;20039;-59
2022/07/01 05:50:40;;;;;;;38.13;33.72;;;15.00;99.90;;;;;;5124007;27;20134;-60
2022/07/01 05:53:06;;;;;;;40.47;36.00;;;15.00;99.90;;;;;;5136286;27;20080;-60
2022/07/01 05:55:32;;;;;;;36.25;32.75;;;15.00;99.90;;;;;;5130648;27;20572;-59
2022/07/01 05:58:01;;;;;;;38.20;34.13;;;15.10;99.90;;;;;;5126762;27;20064;-60
2022/07/01 06:00:28;;;;;;;38.50;34.45;;;15.10;99.90;;;;;;5124286;27;20106;-61
2022/07/01 06:02:54;;;;;;;39.42;35.33;;;15.10;99.90;;;;;;5123507;27;20564;-60
2022/07/01 06:05:20;;;;;;;39.75;35.55;;;15.20;99.90;;;;;;5101180;27;20042;-60
2022/07/01 06:07:46;;;;;;;38.80;35.05;;;15.30;99.90;;;;;;5131056;27;20043;-59
2022/07/01 06:10:12;;;;;;;37.00;33.00;;;15.20;99.90;;;;;;5118450;27;20046;-58
2022/07/01 06:12:41;;;;;;;38.78;35.03;;;15.20;99.90;;;;;;5098670;27;20043;-61
2022/07/01 06:15:10;;;;;;;39.92;35.75;;;15.30;99.90;;;;;;5146598;27;20046;-57
2022/07/01 06:17:37;;;;;;;37.58;33.60;;;15.40;99.90;;;;;;5130833;27;20059;-57
2022/07/01 06:20:03;;;;;;;38.58;34.78;;;15.30;99.90;;;;;;5102939;27;20047;-57
2022/07/01 06:22:29;;;;;;;36.63;33.08;;;15.40;99.90;;;;;;5098699;27;20050;-60
2022/07/01 06:24:56;;;;;;;37.70;33.83;;;15.30;99.90;;;;;;5142716;27;20050;-60
2022/07/01 06:27:23;;;;;;;36.78;33.05;;;15.40;99.90;;;;;;5125779;27;20058;-59
2022/07/01 06:29:50;;;;;;;37.58;33.70;;;15.40;99.90;;;;;;5118043;27;20083;-56
2022/07/01 06:32:16;;;;;;;39.30;35.17;;;15.40;99.90;;;;;;5100488;27;20031;-55
2022/07/01 06:34:42;;;;;;;39.30;35.30;;;15.40;99.90;;;;;;5094602;27;20073;-56
2022/07/01 06:37:08;;;;;;;37.40;33.72;;;15.30;99.90;;;;;;5131753;27;20050;-56
2022/07/01 06:39:34;;;;;;;38.30;34.45;;;15.30;99.90;;;;;;5101657;27;20552;-57
2022/07/01 06:42:00;;;;;;;37.72;33.78;;;15.30;99.90;;;;;;5113761;27;20069;-60
2022/07/01 06:44:27;;;;;;;36.65;33.05;;;15.30;99.90;;;;;;5095496;27;20068;-57
2022/07/01 06:46:53;;;;;;;38.63;34.83;;;15.30;99.90;;;;;;5131112;27;20117;-57
2022/07/01 06:49:19;;;;;;;35.63;32.08;;;15.40;99.90;;;;;;5117289;27;20045;-56
2022/07/01 06:51:45;;;;;;;36.28;32.58;;;15.30;99.90;;;;;;5094863;27;20047;-59
2022/07/01 06:54:11;;;;;;;36.67;33.15;;;15.30;99.90;;;;;;5111522;27;20131;-57
2022/07/01 06:56:37;;;;;;;38.33;34.50;;;15.30;99.90;;;;;;5116200;27;20054;-57
2022/07/01 06:59:03;;;;;;;36.63;32.83;;;15.20;99.90;;;;;;5106554;27;20202;-56
2022/07/01 07:01:30;;;;;;;37.83;33.78;;;15.30;99.90;;;;;;5142072;27;20485;-57
2022/07/01 07:03:56;;;;;;;39.10;35.15;;;15.20;99.90;;;;;;5122375;27;20045;-57
2022/07/01 07:06:22;;;;;;;38.42;34.58;;;15.10;99.90;;;;;;5147162;27;20220;-57
2022/07/01 07:08:48;;;;;;;37.25;33.55;;;15.30;99.90;;;;;;5137283;27;20047;-55
2022/07/01 07:11:14;;;;;;;37.92;34.42;;;15.30;99.90;;;;;;5117436;27;20387;-59
2022/07/01 07:13:41;;;;;;;36.67;32.80;;;15.40;99.90;;;;;;5142858;27;20050;-56
2022/07/01 07:16:08;;;;;;;37.03;33.17;;;15.40;99.90;;;;;;5114487;27;20063;-56
2022/07/01 07:18:34;;;;;;;35.95;32.47;;;15.40;99.90;;;;;;5125358;27;20051;-56
2022/07/01 07:21:02;;;;;;;36.80;33.15;;;15.40;99.90;;;;;;5134410;27;20122;-55
2022/07/01 07:23:28;;;;;;;37.45;33.83;;;15.50;99.90;;;;;;5110429;27;20111;-54
2022/07/01 07:25:55;;;;;;;35.92;32.33;;;15.50;99.90;;;;;;5120826;27;20117;-56
2022/07/01 07:28:21;;;;;;;37.25;33.35;;;15.50;99.90;;;;;;5118954;27;20498;-57
2022/07/01 07:30:47;;;;;;;34.90;31.38;;;15.60;99.90;;;;;;5137168;27;20116;-60
2022/07/01 07:33:13;;;;;;;34.45;30.92;;;15.80;99.90;;;;;;5138194;27;20038;-60
2022/07/01 07:35:40;;;;;;;33.28;30.02;;;15.90;99.90;;;;;;5128816;27;20046;-60
2022/07/01 07:38:07;;;;;;;35.63;31.88;;;16.00;99.90;;;;;;5153316;27;20457;-54
2022/07/01 07:40:34;;;;;;;33.85;30.42;;;16.30;99.90;;;;;;5135664;27;20114;-60
2022/07/01 07:43:00;;;;;;;32.90;29.67;;;16.60;99.90;;;;;;5136787;27;20122;-61
2022/07/01 07:45:26;;;;;;;31.63;28.65;;;16.70;99.90;;;;;;5139029;27;20117;-56
2022/07/01 07:47:54;;;;;;;30.95;28.17;;;16.80;99.90;;;;;;5117815;27;20130;-57
2022/07/01 07:50:22;;;;;;;31.88;28.75;;;17.00;99.90;;;;;;5134623;27;20082;-56
2022/07/01 07:52:48;;;;;;;28.35;25.55;;;17.00;99.90;;;;;;5118989;27;20057;-62
2022/07/01 07:55:14;;;;;;;27.85;25.02;;;17.00;99.90;;;;;;5122394;27;20214;-58
2022/07/01 07:57:41;;;;;;;27.08;24.27;;;17.10;99.90;;;;;;5120232;27;20047;-60
2022/07/01 08:00:10;;;;;;;24.65;22.15;;;17.20;99.90;;;;;;5084797;27;20038;-62
2022/07/01 08:02:41;;;;;;;26.73;23.92;;;17.20;99.90;;;;;;5132060;27;20043;-61
2022/07/01 08:05:09;;;;;;;25.52;22.80;;;17.20;99.90;;;;;;5112384;27;20086;-62
2022/07/01 08:07:36;;;;;;;26.13;23.52;;;17.40;99.90;;;;;;5116705;27;20047;-58
2022/07/01 08:10:04;;;;;;;25.45;22.85;;;17.40;99.90;;;;;;5140921;27;20513;-56
2022/07/01 08:12:31;;;;;;;24.15;21.77;;;17.50;99.90;;;;;;5142519;27;20051;-57
2022/07/01 08:14:57;;;;;;;26.25;23.55;;;17.80;99.90;;;;;;5125892;27;20046;-59
2022/07/01 08:17:23;;;;;;;23.92;21.48;;;17.90;99.90;;;;;;5118770;27;20047;-57
2022/07/01 08:19:50;;;;;;;23.58;21.13;;;18.10;99.90;;;;;;5141493;27;20445;-58
2022/07/01 08:22:16;;;;;;;24.38;22.10;;;18.10;99.90;;;;;;5138721;27;20046;-58
2022/07/01 08:24:42;;;;;;;21.42;19.27;;;18.40;99.90;;;;;;5129281;27;20039;-56
2022/07/01 08:27:09;;;;;;;20.13;18.25;;;18.60;99.90;;;;;;5125544;27;20039;-57
2022/07/01 08:29:35;;;;;;;21.38;19.35;;;18.80;99.90;;;;;;5128978;27;20479;-56
2022/07/01 08:32:01;;;;;;;20.08;18.15;;;19.00;99.90;;;;;;5130526;27;20618;-57
2022/07/01 08:34:28;;;;;;;19.00;17.05;;;19.00;99.90;;;;;;5147845;27;20095;-58
2022/07/01 08:36:54;;;;;;;19.38;16.02;;;19.30;99.90;;;;;;5111713;27;20046;-58
2022/07/01 08:39:21;;;;;;;19.60;16.75;;;19.40;99.90;;;;;;5119676;27;20047;-57
2022/07/01 08:41:48;;;;;;;19.67;17.75;;;19.50;99.90;;;;;;5115459;27;20050;-57
2022/07/01 08:44:14;;;;;;;17.95;16.20;;;19.30;99.90;;;;;;5143187;27;20118;-57
2022/07/01 08:46:40;;;;;;;17.67;15.82;;;19.10;99.90;;;;;;5098899;27;20054;-59
2022/07/01 08:49:07;;;;;;;17.58;15.95;;;19.30;99.90;;;;;;5102962;27;20049;-57
2022/07/01 08:51:33;;;;;;;18.15;16.25;;;19.50;99.90;;;;;;5147349;27;20054;-58
2022/07/01 08:53:59;;;;;;;20.02;16.90;;;19.20;99.90;;;;;;5162965;27;20043;-57
2022/07/01 08:56:40;;;;;;;18.23;15.73;;;19.10;99.90;;;;;;5136103;27;20532;-56
2022/07/01 08:59:07;;;;;;;18.48;16.25;;;19.80;99.90;;;;;;5121837;27;20047;-56
2022/07/01 09:01:34;;;;;;;19.23;16.67;;;20.40;99.90;;;;;;5108589;27;20131;-58
2022/07/01 09:04:15;;;;;;;16.63;14.93;;;20.00;99.90;;;;;;5145070;27;20397;-58
2022/07/01 09:06:42;;;;;;;16.75;15.02;;;20.20;99.90;;;;;;5138086;27;20050;-57
2022/07/01 09:09:14;;;;;;;14.93;13.32;;;20.50;99.90;;;;;;5137363;27;20046;-57
2022/07/01 09:11:53;;;;;;;18.95;12.85;;;20.80;99.90;;;;;;5119625;27;20100;-57
2022/07/01 09:14:21;;;;;;;15.18;12.15;;;20.60;99.90;;;;;;5123557;27;20039;-61
2022/07/01 09:16:55;;;;;;;13.60;10.43;;;20.50;99.90;;;;;;5107181;27;20059;-58
2022/07/01 09:19:22;;;;;;;13.63;10.25;;;20.30;99.90;;;;;;5096223;27;20051;-57
2022/07/01 09:21:51;;;;;;;14.07;11.18;;;19.90;99.90;;;;;;5094062;27;20117;-58
2022/07/01 09:24:30;;;;;;;12.05;10.55;;;19.90;99.90;;;;;;5093645;27;20160;-57
2022/07/01 09:27:13;;;;;;;13.25;11.05;;;19.70;99.90;;;;;;5078059;28;20047;-57
2022/07/01 09:29:42;;;;;;;13.50;10.18;;;19.70;99.90;;;;;;5078623;28;20472;-56
2022/07/01 09:32:11;;;;;;;13.40;11.10;;;19.60;99.90;;;;;;5093752;28;20069;-59
2022/07/01 09:34:40;;;;;;;14.60;10.20;;;19.30;99.90;;;;;;5101518;27;20051;-58
2022/07/01 09:37:07;;;;;;;12.65;8.45;;;19.30;99.90;;;;;;5097236;27;20059;-59
2022/07/01 09:39:46;;;;;;;10.80;7.90;;;19.30;99.90;;;;;;5078629;28;20059;-57
2022/07/01 09:42:14;;;;;;;10.50;8.57;;;19.30;99.90;;;;;;5097202;27;20051;-59
2022/07/01 09:44:57;;;;;;;12.55;9.18;;;19.30;99.90;;;;;;5087896;27;20126;-58
2022/07/01 09:47:24;;;;;;;13.65;9.77;;;19.20;99.90;;;;;;5096049;27;20044;-58
2022/07/01 09:49:52;;;;;;;11.32;10.13;;;19.20;99.90;;;;;;5079628;27;20051;-58
2022/07/01 09:52:18;;;;;;;11.80;9.45;;;19.30;99.90;;;;;;5091830;28;20047;-58
2022/07/01 09:54:49;;;;;;;14.55;9.23;;;19.40;99.90;;;;;;5056192;28;20138;-59
2022/07/01 09:57:17;;;;;;;17.97;15.80;;;19.60;99.90;;;;;;5097289;28;20044;-58
2022/07/01 09:59:44;;;;;;;15.23;13.38;;;19.60;99.90;;;;;;5093700;28;20051;-58
2022/07/01 10:02:11;;;;;;;18.70;16.83;;;19.80;99.90;;;;;;5097349;28;20047;-57
2022/07/01 10:04:42;;;;;;;11.80;9.07;;;20.20;99.90;;;;;;5076970;28;20044;-55
2022/07/01 10:07:20;;;;;;;9.68;6.72;;;20.60;99.90;;;;;;5090612;28;20679;-57
2022/07/01 10:10:07;;;;;;;8.05;5.90;;;21.40;99.90;;;;;;5096193;27;20051;-56
2022/07/01 10:12:40;;;;;;;9.63;5.85;;;21.40;99.90;;;;;;5096614;28;20427;-55
2022/07/01 10:15:09;;;;;;;8.90;5.40;;;21.40;99.90;;;;;;5089848;27;20048;-55
2022/07/01 10:17:44;;;;;;;9.13;5.50;;;21.30;99.90;;;;;;5081697;28;20091;-57
2022/07/01 10:20:20;;;;;;;8.80;5.95;;;20.90;99.90;;;;;;5099891;27;20048;-57
2022/07/01 10:22:47;;;;;;;9.52;5.13;;;20.70;99.90;;;;;;5072280;28;20047;-57
2022/07/01 10:25:49;;;;;;;8.10;5.10;;;20.60;99.90;;;;;;5085319;27;20052;-57
2022/07/01 10:28:22;;;;;;;7.30;5.07;;;20.60;99.90;;;;;;5075520;28;20375;-58
2022/07/01 10:30:53;;;;;;;7.68;6.30;;;20.80;99.90;;;;;;5098379;28;20058;-58
2022/07/01 10:33:34;;;;;;;7.03;5.22;;;21.30;99.90;;;;;;5091947;28;20726;-58
2022/07/01 10:36:07;;;;;;;;;;;21.90;99.90;;;;;;5098874;28;20478;-61
2022/07/01 10:38:34;;;;;;;10.60;8.55;;;22.00;99.90;;;;;;5092549;28;19924;-56
2022/07/01 10:41:09;;;;;;;7.72;5.60;;;21.70;99.90;;;;;;5092523;28;20490;-57
2022/07/01 10:43:37;;;;;;;10.90;7.47;;;21.60;99.90;;;;;;5082140;28;20153;-57
2022/07/01 10:46:04;;;;;;;10.02;5.78;;;21.70;99.90;;;;;;5077628;22;20053;-59
2022/07/01 10:48:33;;;;;;;15.32;12.18;;;21.70;99.90;;;;;;5034703;28;20053;-59
2022/07/01 10:50:59;;;;;;;9.63;5.68;;;21.30;99.90;;;;;;5043005;28;20045;-59
2022/07/01 10:53:45;;;;;;;5.82;3.88;;;21.10;99.90;;;;;;5043219;28;20458;-59
2022/07/01 10:56:37;;;;;;;5.38;3.22;;;21.50;99.90;;;;;;5042337;28;20095;-59
2022/07/01 10:59:03;;;;;;;7.05;3.70;;;22.40;99.90;;;;;;5039781;28;20075;-60
2022/07/01 11:01:30;;;;;;;10.00;2.97;;;22.70;99.90;;;;;;5054861;28;20102;-59
2022/07/01 11:03:56;;;;;;;7.90;3.30;;;23.40;99.90;;;;;;5043685;28;20076;-60
2022/07/01 11:06:24;;;;;;;5.97;3.40;;;23.70;99.90;;;;;;5039092;28;20458;-59
2022/07/01 11:08:50;;;;;;;7.15;3.78;;;23.40;99.90;;;;;;5035597;28;20045;-58
2022/07/01 11:11:19;;;;;;;6.32;3.28;;;23.30;99.90;;;;;;5042930;28;20495;-59
2022/07/01 11:13:45;;;;;;;8.85;3.38;;;22.90;99.90;;;;;;5039785;28;20045;-58
2022/07/01 11:16:12;;;;;;;6.80;3.25;;;23.30;99.90;;;;;;5042737;28;20048;-59
2022/07/01 11:18:40;;;;;;;7.13;2.85;;;23.90;99.90;;;;;;5037580;28;20045;-60
2022/07/01 11:21:10;;;;;;;5.50;2.60;;;24.30;99.90;;;;;;5041600;28;20281;-59
2022/07/01 11:23:36;;;;;;;5.00;2.80;;;23.60;99.90;;;;;;5037160;28;20071;-59
2022/07/01 11:26:02;;;;;;;4.68;1.85;;;23.70;99.90;;;;;;5023540;28;20146;-59
2022/07/01 11:28:28;;;;;;;5.85;1.88;;;23.10;99.90;;;;;;5037236;28;20041;-60
2022/07/01 11:30:59;;;;;;;5.07;1.88;;;23.00;99.90;;;;;;5037720;28;20541;-60
2022/07/01 11:33:26;;;;;;;5.65;2.10;;;23.40;99.90;;;;;;5047214;28;20057;-60
2022/07/01 11:41:30;;;;;;;6.20;2.15;;;23.70;99.90;;;;;;5034927;28;20048;-60
2022/07/01 11:43:56;;;;;;;5.63;2.17;;;23.60;99.90;;;;;;5040349;28;20041;-61
2022/07/01 11:46:23;;;;;;;4.85;1.63;;;23.30;99.90;;;;;;5039255;28;20051;-61
2022/07/01 11:48:51;;;;;;;4.80;1.90;;;22.70;99.90;;;;;;5041906;28;20084;-61
2022/07/01 11:51:22;;;;;;;5.13;1.92;;;22.10;99.90;;;;;;5035085;28;20037;-61
2022/07/01 11:53:56;;;;;;;11.18;8.85;;;22.20;99.90;;;;;;5034035;28;20495;-60
2022/07/01 11:56:35;;;;;;;38.90;35.08;;;22.00;99.90;;;;;;5022081;28;20073;-59
2022/07/01 11:59:01;;;;;;;11.60;9.48;;;21.60;99.90;;;;;;5041633;28;20068;-60
2022/07/01 12:01:33;;;;;;;5.28;2.50;;;21.50;99.90;;;;;;5045713;28;20037;-59
2022/07/01 12:04:02;;;;;;;4.25;1.48;;;21.90;99.90;;;;;;5001619;28;20120;-59
2022/07/01 12:06:29;;;;;;;7.45;2.45;;;22.60;99.90;;;;;;5040559;28;20056;-61
2022/07/01 12:08:56;;;;;;;5.68;1.80;;;22.50;99.90;;;;;;5034322;28;20052;-60
2022/07/01 12:11:24;;;;;;;6.97;1.90;;;22.80;99.90;;;;;;5040478;28;20053;-60
2022/07/01 12:13:51;;;;;;;4.90;1.20;;;22.60;99.90;;;;;;5040301;28;20041;-60
2022/07/01 12:16:18;;;;;;;5.45;1.38;;;23.20;99.90;;;;;;5038390;28;20407;-60
2022/07/01 12:19:02;;;;;;;6.15;1.10;;;23.70;99.90;;;;;;5040374;28;20057;-65
2022/07/01 12:21:30;;;;;;;5.30;1.50;;;24.20;98.80;;;;;;5040095;28;20037;-62
2022/07/01 12:24:23;;;;;;;8.95;6.90;;;24.20;99.90;;;;;;5026539;28;20056;-63
2022/07/01 12:27:02;;;;;;;9.55;4.63;;;23.70;99.90;;;;;;5034953;28;20053;-62
2022/07/01 12:29:30;;;;;;;7.55;3.50;;;23.00;99.90;;;;;;5043445;28;20044;-62
2022/07/01 12:32:05;;;;;;;6.57;2.20;;;23.40;99.90;;;;;;5042132;28;20132;-63
2022/07/01 12:34:47;;;;;;;6.25;2.28;;;23.60;99.90;;;;;;5043407;28;20494;-60
2022/07/01 12:37:19;;;;;;;4.55;1.23;;;23.90;95.80;;;;;;5025801;28;20128;-62
2022/07/01 12:39:48;;;;;;;4.97;1.33;;;23.80;99.90;;;;;;5045046;28;20106;-63
2022/07/01 12:42:26;;;;;;;7.15;4.93;;;23.30;99.90;;;;;;5044772;28;20040;-64
2022/07/01 12:44:54;;;;;;;7.43;3.88;;;23.10;99.90;;;;;;5042259;28;20045;-61
2022/07/01 12:47:42;;;;;;;10.73;7.47;;;22.50;99.90;;;;;;5041532;28;20056;-61
2022/07/01 12:50:11;;;;;;;6.20;2.00;;;21.90;99.90;;;;;;5042456;28;20771;-61
2022/07/01 12:52:46;;;;;;;5.65;1.23;;;22.20;99.90;;;;;;5043705;28;20065;-62
2022/07/01 12:55:17;;;;;;;6.03;3.20;;;23.00;99.90;;;;;;5043900;28;20404;-61
2022/07/01 12:57:47;;;;;;;3.93;1.07;;;22.70;99.90;;;;;;5058493;28;20704;-62
2022/07/01 13:00:15;;;;;;;3.60;1.40;;;22.50;99.90;;;;;;5026465;28;20048;-63